Rechercher aéroport 
image banner adimage banner adimage banner ad
image banner ad

CA23 - Maguire-California Hospital

Situé à Van Nuys, United States

ICAO - CA23, IATA -

Données fournies par Airmate  

Information générale

Coordonnées: N34°2'6" W118°15'59"
Élévation : 376 feet MSL.
 
Voir autres Aéroports à California

Données opérationnelles

Special qualification required
Heure actuelle UTC:
Heure actuelle locale:
METAR: KHHR 262203Z 26010KT 10SM BKN015 BKN024 22/16 A2995 RMK AO2 T02170161
Voir NOTAMs / SUP AIP / TFR affectant cet aéroport [VIEW]
Fréquences de communication: [VIEW]

Pistes:

Coordonnées de l'aéroport

Adresse: Van Nuys United States

Vue satellite de CA23